This is the latest recevied weather packets stored in our database for station/object KC3UTO. If no packets are shown the sender has not sent any weather packets the latest 10 day(s).
| Time | Temp. | Humidity | Pressure | Rain* | Wind** | Luminosity | Snow |
|---|---|---|---|---|---|---|---|
| 1787754464 | 25.56° C | 54% | 1019.3 hPa | 0 mm | - | 668 W/m² | - |
| 1787754159 | 25.56° C | 53% | 1019.1 hPa | 0 mm | - | 654 W/m² | - |
| 1787753854 | 25.56° C | 54% | 1019.2 hPa | 0 mm | - | 641 W/m² | - |
| 1787753553 | 25° C | 56% | 1019.2 hPa | 0 mm | - | 627 W/m² | - |
| 1787753251 | 23.89° C | 60% | 1019.3 hPa | 0 mm | - | 611 W/m² | - |
| 1787752947 | 23.89° C | 58% | 1019.2 hPa | 0 mm | - | 599 W/m² | - |
| 1787752646 | 25° C | 55% | 1019.2 hPa | 0 mm | - | 366 W/m² | - |
| 1787752342 | 24.44° C | 57% | 1019.3 hPa | 0 mm | - | 568 W/m² | - |
| 1787752040 | 24.44° C | 58% | 1019.3 hPa | 0 mm | - | 558 W/m² | - |
| 1787751735 | 24.44° C | 58% | 1019.2 hPa | 0 mm | - | 542 W/m² | - |
| 1787751431 | 24.44° C | 58% | 1019.2 hPa | 0 mm | - | 525 W/m² | - |
| 1787751126 | 23.89° C | 59% | 1019.2 hPa | 0 mm | - | 501 W/m² | - |
| 1787750822 | 23.89° C | 61% | 1019 hPa | 0 mm | - | 480 W/m² | - |
| 1787750522 | 23.33° C | 63% | 1019 hPa | 0 mm | - | 452 W/m² | - |
| 1787750216 | 23.33° C | 65% | 1019.1 hPa | 0 mm | - | 429 W/m² | - |
| 1787749912 | 22.78° C | 67% | 1019.1 hPa | 0 mm | - | 401 W/m² | - |
| 1787749608 | 21.67° C | 74% | 1019 hPa | 0 mm | - | 418 W/m² | - |
| 1787749304 | 20.56° C | 76% | 1019.1 hPa | 0 mm | - | 327 W/m² | - |
| 1787749004 | 21.11° C | 74% | 1019.2 hPa | 0 mm | - | 259 W/m² | - |
| 1787748698 | 21.11° C | 75% | 1019.1 hPa | 0 mm | - | 236 W/m² | - |
| 1787748394 | 20.56° C | 77% | 1019.1 hPa | 0 mm | - | 241 W/m² | - |
| 1787748090 | 20° C | 81% | 1019.1 hPa | 0 mm | - | 257 W/m² | - |
| 1787747790 | 19.44° C | 82% | 1019.3 hPa | 0 mm | - | 228 W/m² | - |
| 1787747485 | 18.89° C | 84% | 1019.3 hPa | 0 mm | - | 201 W/m² | - |
| 1787747185 | 17.78° C | 91% | 1019.4 hPa | 0 mm | - | 186 W/m² | - |
* Rain latest hour (hover to see other rain measurements)
** Current wind speed in m/s (hover to see current wind gust speed)